createdAt,value
2018-08-31T00:00:39.360Z,101554.52
2018-08-31T00:03:07.575Z,101546.65
2018-08-31T00:05:51.025Z,101549.20
2018-08-31T00:08:33.051Z,101550.80
2018-08-31T00:11:07.969Z,101550.66
2018-08-31T00:13:36.150Z,101558.52
2018-08-31T00:16:04.303Z,101560.09
2018-08-31T00:18:32.465Z,101560.30
2018-08-31T00:21:00.660Z,101554.19
2018-08-31T00:24:42.955Z,101558.33
2018-08-31T00:27:22.550Z,101549.75
2018-08-31T00:30:02.112Z,101550.34
2018-08-31T00:33:08.806Z,101551.20
2018-08-31T00:37:53.178Z,101551.27
2018-08-31T00:41:03.683Z,101551.51
2018-08-31T00:43:48.772Z,101552.41
2018-08-31T00:46:17.785Z,101553.98
2018-08-31T00:48:45.963Z,101553.14
2018-08-31T00:51:14.106Z,101559.88
2018-08-31T00:58:37.033Z,101555.48
2018-08-31T01:01:05.217Z,101562.30
2018-08-31T01:03:33.377Z,101561.12
2018-08-31T01:06:01.554Z,101563.75
2018-08-31T01:08:29.732Z,101559.27
2018-08-31T01:10:57.875Z,101559.45
2018-08-31T01:13:26.050Z,101557.98
2018-08-31T01:15:54.357Z,101556.86
2018-08-31T01:18:22.488Z,101559.81
2018-08-31T01:20:50.693Z,101560.64
2018-08-31T01:23:18.841Z,101560.84
2018-08-31T01:25:47.040Z,101565.28
2018-08-31T01:28:15.178Z,101569.67
2018-08-31T01:30:43.377Z,101569.68
2018-08-31T01:33:11.527Z,101562.34
2018-08-31T01:35:39.729Z,101568.60
2018-08-31T01:38:07.958Z,101570.32
2018-08-31T01:40:36.123Z,101569.13
2018-08-31T01:43:04.283Z,101562.21
2018-08-31T01:45:32.458Z,101560.17
2018-08-31T01:48:00.611Z,101564.38
2018-08-31T01:50:28.790Z,101570.13
2018-08-31T01:52:56.993Z,101566.86
2018-08-31T01:55:31.725Z,101563.68
2018-08-31T01:58:01.019Z,101563.29
2018-08-31T02:00:29.314Z,101567.77
2018-08-31T02:02:57.495Z,101568.29
2018-08-31T02:05:25.636Z,101570.31
2018-08-31T02:07:53.826Z,101565.66
2018-08-31T02:10:21.995Z,101570.97
2018-08-31T02:12:50.184Z,101566.78
2018-08-31T02:15:18.353Z,101568.11
2018-08-31T02:17:46.525Z,101562.73
2018-08-31T02:20:14.712Z,101567.17
2018-08-31T02:22:42.890Z,101568.30
2018-08-31T02:25:11.158Z,101565.53
2018-08-31T02:27:39.347Z,101567.75
2018-08-31T02:30:07.543Z,101565.66
2018-08-31T02:32:35.705Z,101567.61
2018-08-31T02:35:03.867Z,101574.16
2018-08-31T02:37:32.158Z,101576.53
2018-08-31T02:40:00.315Z,101574.33
2018-08-31T02:42:28.506Z,101571.53
2018-08-31T02:44:56.654Z,101575.73
2018-08-31T02:47:24.798Z,101576.33
2018-08-31T02:49:52.976Z,101573.70
2018-08-31T02:52:21.141Z,101576.13
2018-08-31T02:54:49.324Z,101574.36
2018-08-31T02:57:17.515Z,101571.92
2018-08-31T02:59:45.648Z,101574.75
2018-08-31T03:02:13.821Z,101572.54
2018-08-31T03:04:42.009Z,101575.31
2018-08-31T03:07:10.196Z,101572.91
2018-08-31T03:09:38.345Z,101577.22
2018-08-31T03:12:06.504Z,101575.31
2018-08-31T03:14:34.618Z,101573.36
2018-08-31T03:17:02.776Z,101574.09
2018-08-31T03:19:30.945Z,101576.04
2018-08-31T03:21:59.092Z,101566.82
2018-08-31T03:24:27.236Z,101573.81
2018-08-31T03:26:55.354Z,101574.97
2018-08-31T03:29:23.501Z,101584.45
2018-08-31T03:31:51.640Z,101575.36
2018-08-31T03:34:19.937Z,101584.85
2018-08-31T03:36:48.137Z,101586.85
2018-08-31T03:39:16.244Z,101575.82
2018-08-31T03:41:44.435Z,101582.98
2018-08-31T03:44:12.949Z,101588.62
2018-08-31T03:46:41.192Z,101588.42
2018-08-31T03:49:09.365Z,101584.51
2018-08-31T03:51:37.513Z,101585.81
2018-08-31T03:54:06.483Z,101580.89
2018-08-31T03:56:34.612Z,101583.83
2018-08-31T03:59:02.774Z,101581.69
2018-08-31T04:01:30.918Z,101583.45
2018-08-31T04:03:59.111Z,101583.45
2018-08-31T04:06:27.345Z,101586.57
2018-08-31T04:08:55.529Z,101587.36
2018-08-31T04:11:23.708Z,101583.43
2018-08-31T04:13:52.213Z,101577.19
2018-08-31T04:16:20.364Z,101582.37
2018-08-31T04:18:48.513Z,101581.91
2018-08-31T04:21:17.362Z,101585.27
2018-08-31T04:23:46.129Z,101586.73
2018-08-31T04:26:14.300Z,101589.69
2018-08-31T04:28:42.485Z,101594.80
2018-08-31T04:31:10.633Z,101594.00
2018-08-31T04:33:40.752Z,101596.91
2018-08-31T04:36:09.472Z,101595.08
2018-08-31T04:38:37.617Z,101597.47
2018-08-31T04:41:06.098Z,101598.27
2018-08-31T04:43:34.224Z,101597.70
2018-08-31T04:46:02.420Z,101597.75
2018-08-31T04:48:30.567Z,101599.00
2018-08-31T04:50:58.716Z,101604.05
2018-08-31T04:53:26.891Z,101609.80
2018-08-31T04:55:55.117Z,101602.02
2018-08-31T04:58:23.277Z,101608.09
2018-08-31T05:00:51.402Z,101603.67
2018-08-31T05:03:19.570Z,101601.22
2018-08-31T05:05:47.757Z,101602.75
2018-08-31T05:08:15.949Z,101597.20
2018-08-31T05:10:44.108Z,101604.86
2018-08-31T05:13:12.342Z,101605.20
2018-08-31T05:15:40.768Z,101594.64
2018-08-31T05:18:08.918Z,101593.95
2018-08-31T05:20:37.104Z,101594.62
2018-08-31T05:23:05.293Z,101596.20
2018-08-31T05:25:33.405Z,101600.46
2018-08-31T05:28:01.547Z,101601.77
2018-08-31T05:30:29.724Z,101610.34
2018-08-31T05:32:58.365Z,101608.91
2018-08-31T05:35:26.532Z,101610.48
2018-08-31T05:37:54.663Z,101613.69
2018-08-31T05:40:22.781Z,101609.77
2018-08-31T05:42:51.037Z,101611.47
2018-08-31T05:45:19.252Z,101609.48
2018-08-31T05:47:47.405Z,101607.59
2018-08-31T05:50:15.653Z,101610.04
2018-08-31T05:52:43.809Z,101614.78
2018-08-31T05:55:12.021Z,101613.95
2018-08-31T05:57:40.209Z,101624.12
2018-08-31T06:00:08.380Z,101625.29
2018-08-31T06:02:36.540Z,101630.20
2018-08-31T06:05:04.701Z,101629.33
2018-08-31T06:07:32.844Z,101629.97
2018-08-31T06:10:01.013Z,101632.31
2018-08-31T06:12:29.216Z,101634.41
2018-08-31T06:14:57.365Z,101633.26
2018-08-31T06:17:25.626Z,101632.05
2018-08-31T06:19:53.767Z,101633.06
2018-08-31T06:22:21.928Z,101636.30
2018-08-31T06:24:50.121Z,101633.59
2018-08-31T06:27:18.381Z,101629.96
2018-08-31T06:29:46.476Z,101629.66
2018-08-31T06:32:14.610Z,101632.12
2018-08-31T06:34:42.760Z,101631.61
2018-08-31T06:37:10.960Z,101631.08
2018-08-31T06:39:39.137Z,101632.53
2018-08-31T06:42:07.283Z,101628.62
2018-08-31T06:44:35.429Z,101630.40
2018-08-31T06:47:03.687Z,101627.27
2018-08-31T06:49:31.825Z,101631.98
2018-08-31T06:52:00.001Z,101629.34
2018-08-31T06:54:28.171Z,101630.84
2018-08-31T06:56:56.824Z,101633.84
2018-08-31T06:59:25.017Z,101637.80
2018-08-31T07:01:53.794Z,101641.43
2018-08-31T07:04:21.965Z,101639.19
2018-08-31T07:06:50.164Z,101637.19
2018-08-31T07:09:18.305Z,101639.41
2018-08-31T07:11:46.494Z,101637.28
2018-08-31T07:14:14.667Z,101633.05
2018-08-31T07:16:43.177Z,101638.75
2018-08-31T07:19:11.361Z,101641.52
2018-08-31T07:21:39.583Z,101638.61
2018-08-31T07:24:07.797Z,101642.02
2018-08-31T07:26:36.008Z,101642.19
2018-08-31T07:29:04.181Z,101638.84
2018-08-31T07:31:32.336Z,101641.28
2018-08-31T07:34:00.517Z,101644.84
2018-08-31T07:36:28.719Z,101643.78
2018-08-31T07:38:56.850Z,101642.78
2018-08-31T07:41:25.075Z,101639.20
2018-08-31T07:43:53.461Z,101635.91
2018-08-31T07:46:21.621Z,101637.23
2018-08-31T07:48:49.838Z,101639.48
2018-08-31T07:51:17.961Z,101643.53
2018-08-31T07:53:46.152Z,101644.56
2018-08-31T07:56:14.245Z,101647.86
2018-08-31T07:58:42.416Z,101648.78
2018-08-31T08:01:10.585Z,101644.58
2018-08-31T08:03:39.327Z,101650.41
2018-08-31T08:06:07.469Z,101654.44
2018-08-31T08:08:35.633Z,101651.86
2018-08-31T08:11:03.799Z,101654.22
2018-08-31T08:13:31.973Z,101653.47
2018-08-31T08:16:00.188Z,101648.00
2018-08-31T08:18:28.312Z,101649.83
2018-08-31T08:20:56.481Z,101650.41
2018-08-31T08:23:24.629Z,101649.12
2018-08-31T08:25:52.793Z,101657.61
2018-08-31T08:28:20.925Z,101656.80
2018-08-31T08:30:49.076Z,101653.09
2018-08-31T08:33:17.258Z,101653.64
2018-08-31T08:35:45.434Z,101652.56
2018-08-31T08:38:13.645Z,101652.73
2018-08-31T08:40:41.814Z,101649.17
2018-08-31T08:43:10.012Z,101653.38
2018-08-31T08:45:38.201Z,101650.59
2018-08-31T08:48:06.364Z,101655.46
2018-08-31T08:50:34.537Z,101656.23
2018-08-31T08:53:02.680Z,101659.31
2018-08-31T08:55:30.929Z,101655.57
2018-08-31T08:57:59.097Z,101649.23
2018-08-31T09:00:27.282Z,101654.91
2018-08-31T09:02:55.449Z,101664.86
2018-08-31T09:05:23.606Z,101659.83
2018-08-31T09:07:51.745Z,101656.14
2018-08-31T09:10:19.919Z,101660.54
2018-08-31T09:12:48.052Z,101680.58
2018-08-31T09:15:16.204Z,101671.21
2018-08-31T09:17:44.321Z,101675.39
2018-08-31T09:20:12.506Z,101670.94
2018-08-31T09:22:40.662Z,101670.62
2018-08-31T09:25:08.790Z,101674.20
2018-08-31T09:27:36.952Z,101685.55
2018-08-31T09:30:05.215Z,101670.81
2018-08-31T09:32:34.040Z,101676.67
2018-08-31T09:35:02.341Z,101676.36
2018-08-31T09:37:30.509Z,101674.17
2018-08-31T09:39:58.636Z,101677.43
2018-08-31T09:42:26.773Z,101675.30
2018-08-31T09:44:54.932Z,101674.06
2018-08-31T09:47:23.093Z,101671.27
2018-08-31T09:49:51.305Z,101670.01
2018-08-31T09:52:19.505Z,101671.34
2018-08-31T09:54:47.684Z,101674.29
2018-08-31T09:57:15.880Z,101671.47
2018-08-31T09:59:43.980Z,101671.10
2018-08-31T10:02:17.372Z,101663.53
2018-08-31T10:04:46.163Z,101668.03
2018-08-31T10:07:14.311Z,101668.89
2018-08-31T10:09:42.472Z,101671.95
2018-08-31T10:12:10.590Z,101674.28
2018-08-31T10:14:38.772Z,101673.39
2018-08-31T10:17:06.970Z,101671.64
2018-08-31T10:19:35.106Z,101667.14
2018-08-31T10:22:03.247Z,101672.86
2018-08-31T10:24:31.413Z,101671.11
2018-08-31T10:26:59.593Z,101669.19
2018-08-31T10:29:27.857Z,101675.45
2018-08-31T10:31:56.016Z,101659.18
2018-08-31T10:34:24.165Z,101667.52
2018-08-31T10:36:52.296Z,101663.87
2018-08-31T10:39:20.434Z,101661.44
2018-08-31T10:41:48.581Z,101661.25
2018-08-31T10:44:16.764Z,101659.73
2018-08-31T10:46:44.933Z,101657.87
2018-08-31T10:49:13.100Z,101658.67
2018-08-31T10:51:41.284Z,101659.55
2018-08-31T10:54:09.525Z,101664.59
2018-08-31T10:56:37.679Z,101660.55
2018-08-31T10:59:05.865Z,101658.39
2018-08-31T11:01:34.016Z,101657.39
2018-08-31T11:04:02.208Z,101650.28
2018-08-31T11:06:30.412Z,101653.72
2018-08-31T11:08:58.685Z,101652.73
2018-08-31T11:11:26.840Z,101658.20
2018-08-31T11:13:55.078Z,101660.77
2018-08-31T11:16:23.249Z,101658.41
2018-08-31T11:18:51.444Z,101656.91
2018-08-31T11:21:19.560Z,101657.14
2018-08-31T11:23:47.751Z,101654.73
2018-08-31T11:26:15.878Z,101651.98
2018-08-31T11:28:44.232Z,101646.75
2018-08-31T11:31:12.390Z,101648.61
2018-08-31T11:33:42.333Z,101648.07
2018-08-31T11:36:10.492Z,101647.37
2018-08-31T11:38:38.640Z,101651.35
2018-08-31T11:41:06.852Z,101642.20
2018-08-31T11:43:35.590Z,101646.78
2018-08-31T11:46:03.726Z,101656.52
2018-08-31T11:48:31.901Z,101646.02
2018-08-31T11:51:00.057Z,101644.22
2018-08-31T11:53:28.228Z,101649.70
2018-08-31T11:55:56.967Z,101647.92
2018-08-31T11:58:25.157Z,101643.23
2018-08-31T12:00:53.620Z,101644.42
2018-08-31T12:03:21.821Z,101652.83
2018-08-31T12:05:49.977Z,101644.86
2018-08-31T12:08:18.118Z,101645.68
2018-08-31T12:10:46.296Z,101646.08
2018-08-31T12:13:14.449Z,101648.79
2018-08-31T12:15:42.629Z,101649.75
2018-08-31T12:18:10.786Z,101647.34
2018-08-31T14:48:21.579Z,101649.16
2018-08-31T14:50:50.496Z,101655.89
2018-08-31T14:53:18.672Z,101653.73
2018-08-31T14:55:46.847Z,101647.93
2018-08-31T14:58:15.102Z,101647.22
2018-08-31T15:00:43.469Z,101653.50
2018-08-31T15:03:11.604Z,101651.45
2018-08-31T15:05:39.761Z,101652.30
2018-08-31T15:08:07.904Z,101652.05
2018-08-31T15:10:36.069Z,101652.41
2018-08-31T15:13:04.281Z,101651.80
2018-08-31T15:15:32.373Z,101655.55
2018-08-31T15:18:00.506Z,101648.31
2018-08-31T15:20:28.679Z,101650.12
2018-08-31T15:22:56.858Z,101649.10
2018-08-31T15:25:25.093Z,101652.66
2018-08-31T15:27:53.240Z,101654.12
2018-08-31T15:30:21.397Z,101658.95
2018-08-31T15:32:49.502Z,101653.41
2018-08-31T15:35:17.652Z,101651.58
2018-08-31T15:37:45.790Z,101660.98
2018-08-31T15:40:13.911Z,101655.33
2018-08-31T15:42:42.140Z,101649.08
2018-08-31T15:45:10.389Z,101652.75
2018-08-31T15:47:38.556Z,101658.46
2018-08-31T15:50:06.692Z,101654.88
2018-08-31T15:52:34.857Z,101654.25
2018-08-31T15:55:02.998Z,101650.58
2018-08-31T15:57:31.194Z,101657.28
2018-08-31T15:59:59.268Z,101657.01
2018-08-31T16:02:27.474Z,101650.35
2018-08-31T16:04:55.605Z,101657.33
2018-08-31T16:07:23.782Z,101661.30
2018-08-31T16:09:51.955Z,101657.89
2018-08-31T16:12:20.105Z,101659.84
2018-08-31T16:14:48.298Z,101658.59
2018-08-31T16:17:17.711Z,101659.11
2018-08-31T16:19:46.546Z,101658.52
2018-08-31T16:22:15.015Z,101660.63
2018-08-31T16:24:43.185Z,101660.52
2018-08-31T16:27:11.368Z,101664.59
2018-08-31T16:29:39.505Z,101666.77
2018-08-31T16:32:07.715Z,101670.75
2018-08-31T16:34:35.890Z,101664.79
2018-08-31T16:37:04.040Z,101664.53
2018-08-31T16:39:32.217Z,101658.64
2018-08-31T16:42:00.397Z,101666.08
2018-08-31T16:44:28.550Z,101659.41
2018-08-31T16:46:56.722Z,101668.23
2018-08-31T16:49:24.846Z,101672.06
2018-08-31T16:51:53.046Z,101678.58
2018-08-31T16:54:21.161Z,101666.91
2018-08-31T16:56:49.300Z,101679.85
2018-08-31T16:59:17.473Z,101676.67
2018-08-31T17:01:45.647Z,101678.09
2018-08-31T17:04:13.824Z,101678.38
2018-08-31T17:06:41.982Z,101684.45
2018-08-31T17:09:11.974Z,101683.14
2018-08-31T17:11:40.167Z,101685.55
2018-08-31T17:14:08.483Z,101689.11
2018-08-31T17:16:36.764Z,101689.16
2018-08-31T17:19:05.224Z,101691.32
2018-08-31T17:21:33.408Z,101695.58
2018-08-31T17:24:01.566Z,101693.45
2018-08-31T17:26:35.116Z,101698.43
2018-08-31T17:29:08.685Z,101695.36
2018-08-31T17:31:42.270Z,101697.59
2018-08-31T17:35:13.350Z,101702.91
2018-08-31T17:37:41.476Z,101702.95
2018-08-31T17:40:09.592Z,101704.20
2018-08-31T17:42:39.929Z,101706.84
2018-08-31T17:45:09.374Z,101713.20
2018-08-31T17:47:37.533Z,101710.55
2018-08-31T17:50:06.859Z,101714.70
2018-08-31T17:52:35.041Z,101721.51
2018-08-31T17:55:03.169Z,101722.48
2018-08-31T17:57:31.272Z,101725.00
2018-08-31T17:59:59.384Z,101728.52
2018-08-31T18:02:27.507Z,101733.44
2018-08-31T18:04:55.649Z,101735.27
2018-08-31T18:07:23.764Z,101740.13
2018-08-31T18:09:51.881Z,101744.84
2018-08-31T18:12:20.026Z,101745.98
2018-08-31T18:14:48.328Z,101747.70
2018-08-31T18:17:16.508Z,101751.02
2018-08-31T18:19:44.704Z,101756.36
2018-08-31T18:22:12.810Z,101755.13
2018-08-31T18:24:40.959Z,101762.96
2018-08-31T18:27:09.089Z,101762.50
2018-08-31T18:29:40.204Z,101760.98
2018-08-31T18:32:08.334Z,101766.95
2018-08-31T18:34:36.496Z,101766.44
2018-08-31T18:37:04.631Z,101769.36
2018-08-31T18:39:32.781Z,101770.97
2018-08-31T18:42:00.905Z,101776.37
2018-08-31T18:44:29.010Z,101782.41
2018-08-31T18:46:57.173Z,101783.08
2018-08-31T18:49:25.318Z,101785.15
2018-08-31T18:51:53.445Z,101786.16
2018-08-31T18:54:21.600Z,101793.23
2018-08-31T18:56:49.736Z,101788.33
2018-08-31T18:59:17.835Z,101783.05
2018-08-31T19:01:45.961Z,101788.45
2018-08-31T19:04:14.123Z,101784.45
2018-08-31T19:06:42.233Z,101794.95
2018-08-31T19:09:10.419Z,101793.72
2018-08-31T19:11:38.529Z,101785.33
2018-08-31T19:14:06.635Z,101788.08
2018-08-31T19:16:34.728Z,101794.02
2018-08-31T19:19:02.852Z,101789.30
2018-08-31T19:21:30.981Z,101787.88
2018-08-31T19:23:59.079Z,101789.96
2018-08-31T19:26:27.185Z,101784.59
2018-08-31T19:28:55.293Z,101782.13
2018-08-31T19:31:23.435Z,101793.16
2018-08-31T19:33:51.544Z,101798.34
2018-08-31T19:36:19.681Z,101798.42
2018-08-31T19:38:47.824Z,101796.64
2018-08-31T19:41:15.987Z,101793.44
2018-08-31T19:43:44.220Z,101793.22
2018-08-31T19:46:12.675Z,101799.92
2018-08-31T19:48:40.850Z,101798.61
2018-08-31T19:51:08.999Z,101795.77
2018-08-31T19:53:37.249Z,101797.27
2018-08-31T19:56:05.368Z,101798.15
2018-08-31T19:58:33.546Z,101795.59
2018-08-31T20:01:01.648Z,101795.84
2018-08-31T20:03:29.797Z,101798.50
2018-08-31T20:05:58.037Z,101797.80
2018-08-31T20:08:26.224Z,101802.14
2018-08-31T20:10:54.348Z,101806.07
2018-08-31T20:13:22.513Z,101807.14
2018-08-31T20:15:50.678Z,101803.66
2018-08-31T20:18:18.933Z,101802.39
2018-08-31T20:20:47.112Z,101807.08
2018-08-31T20:23:15.285Z,101813.82
2018-08-31T20:25:43.460Z,101814.52
2018-08-31T20:28:11.649Z,101806.53
2018-08-31T20:30:39.813Z,101811.71
2018-08-31T20:33:07.960Z,101813.11
2018-08-31T20:35:36.144Z,101812.93
2018-08-31T20:38:04.279Z,101820.17
2018-08-31T20:40:32.400Z,101816.96
2018-08-31T20:43:00.576Z,101823.00
2018-08-31T20:45:28.758Z,101826.18
2018-08-31T20:47:56.908Z,101823.02
2018-08-31T20:50:25.050Z,101828.23
2018-08-31T20:52:53.190Z,101821.11
2018-08-31T20:55:21.351Z,101829.25
2018-08-31T20:57:49.580Z,101828.78
2018-08-31T21:00:17.799Z,101834.66
2018-08-31T21:02:45.920Z,101832.70
2018-08-31T21:05:14.062Z,101832.34
2018-08-31T21:07:42.238Z,101832.84
2018-08-31T21:10:10.371Z,101840.25
2018-08-31T21:12:38.560Z,101839.51
2018-08-31T21:15:06.711Z,101841.38
2018-08-31T21:17:34.891Z,101842.80
2018-08-31T21:20:03.130Z,101840.63
2018-08-31T21:22:31.282Z,101838.47
2018-08-31T21:24:59.441Z,101842.88
2018-08-31T21:27:27.560Z,101845.88
2018-08-31T21:29:55.765Z,101843.02
2018-08-31T21:32:23.993Z,101841.95
2018-08-31T21:34:52.238Z,101844.42
2018-08-31T21:37:20.387Z,101847.88
2018-08-31T21:39:48.513Z,101855.02
2018-08-31T21:42:16.675Z,101857.23
2018-08-31T21:44:44.760Z,101860.64
2018-08-31T21:47:12.865Z,101860.66
2018-08-31T21:49:40.984Z,101863.81
2018-08-31T21:52:15.859Z,101863.56
2018-08-31T21:54:44.004Z,101862.16
2018-08-31T21:57:12.120Z,101868.38
2018-08-31T21:59:40.225Z,101868.80
2018-08-31T22:02:08.328Z,101868.89
2018-08-31T22:04:36.428Z,101863.45
2018-08-31T22:07:04.504Z,101861.15
2018-08-31T22:09:32.624Z,101865.13
2018-08-31T22:12:00.722Z,101864.04
2018-08-31T22:14:28.816Z,101867.74
2018-08-31T22:16:56.940Z,101865.31
2018-08-31T22:19:25.067Z,101869.83
2018-08-31T22:21:53.162Z,101873.86
2018-08-31T22:24:21.306Z,101868.67
2018-08-31T22:26:49.396Z,101875.48
2018-08-31T22:29:17.542Z,101873.64
2018-08-31T22:31:45.685Z,101873.61
2018-08-31T22:34:13.812Z,101869.81
2018-08-31T22:36:41.926Z,101866.10
2018-08-31T22:39:10.602Z,101864.77
2018-08-31T22:41:38.844Z,101863.14
2018-08-31T22:44:07.025Z,101863.00
2018-08-31T22:46:35.168Z,101860.99
2018-08-31T22:49:03.276Z,101860.11
2018-08-31T22:51:31.457Z,101855.78
2018-08-31T22:53:59.576Z,101853.23
2018-08-31T22:56:27.719Z,101855.31
2018-08-31T22:58:55.840Z,101854.95
2018-08-31T23:01:23.962Z,101849.03
2018-08-31T23:03:52.064Z,101850.13
2018-08-31T23:06:20.245Z,101849.58
2018-08-31T23:08:48.371Z,101843.54
2018-08-31T23:11:16.540Z,101849.83
2018-08-31T23:13:45.055Z,101854.84
2018-08-31T23:16:13.117Z,101849.75
2018-08-31T23:18:41.324Z,101852.90
2018-08-31T23:21:09.979Z,101846.34
2018-08-31T23:28:33.961Z,101851.40
2018-08-31T23:31:02.059Z,101856.91
2018-08-31T23:33:30.189Z,101857.89
2018-08-31T23:35:58.303Z,101848.78
2018-08-31T23:38:26.412Z,101858.20
2018-08-31T23:40:54.537Z,101853.50
2018-08-31T23:43:22.653Z,101857.22
2018-08-31T23:45:50.925Z,101852.03
2018-08-31T23:48:19.417Z,101850.65
2018-08-31T23:50:47.554Z,101848.62
2018-08-31T23:53:15.674Z,101852.65
2018-08-31T23:55:43.792Z,101857.59
2018-08-31T23:58:11.909Z,101862.77
